Time;durP1;ratioP1;P1;durP2;ratioP2;P2;SDS_P1;SDS_P2;PMS_P1;PMS_P2;Temp;Humidity;BMP_temperature;BMP_pressure;BME280_temperature;BME280_humidity;BME280_pressure;Samples;Min_cycle;Max_cycle;Signal;HPM_P1;HPM_P2
2022/09/12 00:02:23;;;;;;;;;;;;;;;11.89;61.01;96115.97;10376779;28;97602;-58
2022/09/12 00:07:25;;;;;;;;;;;;;;;11.73;61.27;96112.31;10380002;28;97088;-59
2022/09/12 00:12:28;;;;;;;;;;;;;;;11.62;61.62;96112.56;10394811;28;96787;-58
2022/09/12 00:17:33;;;;;;;;;;;;;;;11.57;61.82;96112.22;10379289;28;96700;-59
2022/09/12 00:22:36;;;;;;;;;;;;;;;11.58;61.64;96110.44;10379733;28;96725;-59
2022/09/12 00:27:39;;;;;;;;;;;;;;;11.58;61.82;96111.25;10379448;28;96652;-59
2022/09/12 00:32:43;;;;;;;;;;;;;;;11.53;61.96;96101.25;10378650;28;96668;-58
2022/09/12 00:37:46;;;;;;;;;;;;;;;11.43;62.10;96097.94;10378940;28;96787;-58
2022/09/12 00:42:48;;;;;;;;;;;;;;;11.39;62.25;96101.03;10377675;28;96919;-58
2022/09/12 00:47:53;;;;;;;;;;;;;;;11.31;61.96;96097.41;10379459;28;96695;-58
2022/09/12 00:52:57;;;;;;;;;;;;;;;11.28;62.20;96097.69;10378001;28;96779;-58
2022/09/12 00:58:02;;;;;;;;;;;;;;;11.24;62.48;96096.38;10378400;28;96720;-58
2022/09/12 01:03:08;;;;;;;;;;;;;;;11.16;62.26;96088.47;10377863;28;96760;-58
2022/09/12 01:08:11;;;;;;;;;;;;;;;11.12;62.55;96079.28;10378136;28;96757;-58
2022/09/12 01:13:14;;;;;;;;;;;;;;;11.11;62.42;96082.88;10345168;28;96856;-58
2022/09/12 01:18:20;;;;;;;;;;;;;;;11.08;62.59;96081.38;10337029;28;96748;-58
2022/09/12 01:23:33;;;;;;;;;;;;;;;11.07;62.61;96086.75;10336951;28;96796;-58
2022/09/12 01:28:52;;;;;;;;;;;;;;;11.01;62.87;96077.75;10335554;28;96702;-59
2022/09/12 01:34:00;;;;;;;;;;;;;;;11.05;62.66;96070.41;10335929;28;96757;-59
2022/09/12 01:39:04;;;;;;;;;;;;;;;11.03;62.50;96069.75;10365040;28;96727;-58
2022/09/12 01:44:10;;;;;;;;;;;;;;;10.97;62.55;96079.84;10376645;28;96917;-58
2022/09/12 01:49:15;;;;;;;;;;;;;;;10.91;62.82;96067.41;10363620;28;96772;-58
2022/09/12 01:54:20;;;;;;;;;;;;;;;10.88;62.80;96064.28;10375876;28;96618;-59
2022/09/12 01:59:25;;;;;;;;;;;;;;;10.85;63.12;96060.19;10346381;28;97061;-58
2022/09/12 02:04:30;;;;;;;;;;;;;;;10.78;63.23;96064.38;10346155;28;98000;-58
2022/09/12 02:09:37;;;;;;;;;;;;;;;10.66;63.26;96065.59;10374279;28;96866;-58
2022/09/12 02:14:43;;;;;;;;;;;;;;;10.59;63.57;96060.16;10375233;28;96850;-58
2022/09/12 02:19:50;;;;;;;;;;;;;;;10.59;63.62;96068.81;10376120;28;96758;-58
2022/09/12 02:24:56;;;;;;;;;;;;;;;10.53;63.62;96064.22;10374959;28;97398;-58
2022/09/12 02:29:58;;;;;;;;;;;;;;;10.46;63.72;96065.78;10376524;28;96695;-58
2022/09/12 02:35:06;;;;;;;;;;;;;;;10.39;63.87;96060.34;10375411;28;96606;-58
2022/09/12 02:40:08;;;;;;;;;;;;;;;10.37;64.03;96061.44;10333456;28;97214;-59
2022/09/12 02:45:12;;;;;;;;;;;;;;;10.34;63.93;96046.91;10332709;28;96763;-58
2022/09/12 02:50:16;;;;;;;;;;;;;;;10.30;63.87;96037.72;10333465;28;96908;-58
2022/09/12 02:55:19;;;;;;;;;;;;;;;10.30;64.40;96047.38;10333120;28;96700;-58
2022/09/12 03:00:22;;;;;;;;;;;;;;;10.28;63.50;96042.28;10333235;28;97078;-58
2022/09/12 03:05:30;;;;;;;;;;;;;;;10.29;64.10;96037.88;10334541;28;97910;-58
2022/09/12 03:10:37;;;;;;;;;;;;;;;10.21;64.22;96041.25;10374044;28;97178;-58
2022/09/12 03:15:43;;;;;;;;;;;;;;;10.15;64.19;96047.06;10374030;28;97139;-58
2022/09/12 03:20:50;;;;;;;;;;;;;;;10.13;64.29;96052.47;10387561;28;96791;-58
2022/09/12 03:25:56;;;;;;;;;;;;;;;10.12;64.12;96052.59;10373715;28;97152;-58
2022/09/12 03:30:58;;;;;;;;;;;;;;;10.11;64.07;96056.16;10373947;28;96690;-59
2022/09/12 03:36:02;;;;;;;;;;;;;;;9.95;64.81;96062.06;10368709;28;97033;-58
2022/09/12 03:41:06;;;;;;;;;;;;;;;9.84;65.28;96056.09;10371997;28;96977;-58
2022/09/12 03:46:08;;;;;;;;;;;;;;;9.75;65.59;96056.97;10380799;28;96777;-58
2022/09/12 03:51:12;;;;;;;;;;;;;;;9.80;65.48;96054.75;10380405;28;98077;-58
2022/09/12 03:56:15;;;;;;;;;;;;;;;9.83;65.48;96049.22;10380567;28;96776;-58
2022/09/12 04:01:18;;;;;;;;;;;;;;;9.86;65.38;96042.91;10380471;28;96927;-58
2022/09/12 04:06:22;;;;;;;;;;;;;;;9.86;65.64;96048.94;10367162;28;96861;-59
2022/09/12 04:11:25;;;;;;;;;;;;;;;9.89;65.40;96050.44;10367144;28;96893;-58
2022/09/12 04:16:27;;;;;;;;;;;;;;;9.84;65.43;96048.25;10380015;28;96820;-58
2022/09/12 04:21:31;;;;;;;;;;;;;;;9.83;65.58;96044.00;10379211;28;97040;-58
2022/09/12 04:26:34;;;;;;;;;;;;;;;9.82;65.70;96041.56;10378921;28;96718;-58
2022/09/12 04:31:36;;;;;;;;;;;;;;;9.71;65.69;96050.41;10379704;28;96781;-58
2022/09/12 04:36:40;;;;;;;;;;;;;;;9.59;65.79;96047.19;10361717;28;96966;-58
2022/09/12 04:41:43;;;;;;;;;;;;;;;9.64;66.14;96044.13;10337944;28;96883;-59
2022/09/12 04:46:46;;;;;;;;;;;;;;;9.70;65.83;96046.16;10337173;28;97050;-58
2022/09/12 04:51:52;;;;;;;;;;;;;;;9.65;65.54;96053.59;10337244;28;96815;-58
2022/09/12 04:56:55;;;;;;;;;;;;;;;9.57;66.29;96050.91;10373271;28;96854;-58
2022/09/12 05:01:57;;;;;;;;;;;;;;;9.53;66.13;96049.56;10421307;28;96745;-59
2022/09/12 05:07:01;;;;;;;;;;;;;;;9.52;65.97;96042.69;10398352;28;96670;-58
2022/09/12 05:12:04;;;;;;;;;;;;;;;9.50;66.56;96045.44;10377913;28;96944;-58
2022/09/12 05:17:07;;;;;;;;;;;;;;;9.46;66.29;96052.75;10376915;28;96762;-58
2022/09/12 05:22:11;;;;;;;;;;;;;;;9.45;66.51;96048.50;10377190;28;97472;-58
2022/09/12 05:27:14;;;;;;;;;;;;;;;9.45;66.10;96052.88;10377606;28;96699;-57
2022/09/12 05:32:16;;;;;;;;;;;;;;;9.50;65.99;96061.09;10395232;28;96794;-58
2022/09/12 05:37:21;;;;;;;;;;;;;;;9.54;66.31;96062.47;10392250;28;96745;-60
2022/09/12 05:42:23;;;;;;;;;;;;;;;9.61;66.87;96070.50;10377396;28;96692;-58
2022/09/12 05:47:26;;;;;;;;;;;;;;;9.71;66.90;96066.06;10376739;28;97203;-59
2022/09/12 05:52:30;;;;;;;;;;;;;;;9.79;66.37;96068.75;10377391;28;96943;-58
2022/09/12 05:57:33;;;;;;;;;;;;;;;9.81;66.79;96082.47;10375961;28;96698;-58
2022/09/12 06:02:35;;;;;;;;;;;;;;;9.93;66.11;96090.91;10394832;27;96795;-58
2022/09/12 06:07:39;;;;;;;;;;;;;;;9.96;66.10;96089.81;10333301;28;96741;-58
2022/09/12 06:12:42;;;;;;;;;;;;;;;10.09;66.49;96090.25;10377215;28;97235;-59
2022/09/12 06:17:45;;;;;;;;;;;;;;;10.24;65.77;96087.97;10375706;28;96746;-58
2022/09/12 06:22:54;;;;;;;;;;;;;;;10.35;65.67;96094.72;10384322;28;96929;-58
2022/09/12 06:27:57;;;;;;;;;;;;;;;10.43;65.79;96092.19;10375592;28;96758;-58
2022/09/12 06:32:59;;;;;;;;;;;;;;;10.59;65.42;96091.50;10396978;28;96778;-58
2022/09/12 06:38:03;;;;;;;;;;;;;;;10.71;65.19;96089.47;10382444;28;96698;-60
2022/09/12 06:43:06;;;;;;;;;;;;;;;10.85;65.26;96075.84;10414619;28;96724;-58
2022/09/12 06:48:08;;;;;;;;;;;;;;;11.03;65.04;96069.75;10416802;28;97132;-58
2022/09/12 06:53:13;;;;;;;;;;;;;;;11.19;64.82;96072.47;10416505;28;96752;-58
2022/09/12 06:58:15;;;;;;;;;;;;;;;11.30;64.49;96085.25;10415358;27;96945;-58
2022/09/12 07:03:18;;;;;;;;;;;;;;;11.48;64.71;96084.41;10415567;28;96722;-58
2022/09/12 07:08:22;;;;;;;;;;;;;;;11.60;64.60;96074.47;10379276;28;96811;-58
2022/09/12 07:13:25;;;;;;;;;;;;;;;11.72;64.50;96079.25;10373327;28;96957;-58
2022/09/12 07:18:28;;;;;;;;;;;;;;;11.99;64.04;96082.59;10374269;28;97596;-58
2022/09/12 07:23:32;;;;;;;;;;;;;;;12.16;63.59;96072.97;10373729;28;96906;-58
2022/09/12 07:28:34;;;;;;;;;;;;;;;12.34;63.40;96072.03;10376126;28;96881;-58
2022/09/12 07:33:38;;;;;;;;;;;;;;;12.44;63.72;96073.50;10373595;28;96749;-58
2022/09/12 07:38:42;;;;;;;;;;;;;;;12.62;64.09;96069.91;10372946;28;96699;-58
2022/09/12 07:43:45;;;;;;;;;;;;;;;12.87;63.38;96065.44;10372938;28;96643;-58
2022/09/12 07:48:51;;;;;;;;;;;;;;;13.17;62.97;96069.19;10371627;28;96989;-58
2022/09/12 07:53:56;;;;;;;;;;;;;;;13.43;62.90;96074.19;10373052;28;96917;-58
2022/09/12 07:58:58;;;;;;;;;;;;;;;13.70;62.42;96068.66;10372423;28;97063;-58
2022/09/12 08:04:02;;;;;;;;;;;;;;;13.83;62.35;96084.69;10356668;28;96717;-58
2022/09/12 08:09:07;;;;;;;;;;;;;;;13.85;63.36;96080.09;10340420;28;97233;-59
2022/09/12 08:14:09;;;;;;;;;;;;;;;14.11;62.99;96076.34;10371746;28;96854;-59
2022/09/12 08:19:12;;;;;;;;;;;;;;;14.15;62.40;96075.00;10372082;28;97165;-58
2022/09/12 08:24:16;;;;;;;;;;;;;;;14.19;62.53;96079.72;10378555;28;96643;-58
2022/09/12 08:29:18;;;;;;;;;;;;;;;14.27;62.95;96076.22;10379111;28;96740;-59
2022/09/12 08:34:21;;;;;;;;;;;;;;;14.45;62.36;96083.03;10357724;28;96762;-58
2022/09/12 08:39:25;;;;;;;;;;;;;;;14.75;62.55;96076.88;10337170;28;97256;-59
2022/09/12 08:44:45;;;;;;;;;;;;;;;14.94;61.69;96077.38;10337770;28;97438;-58
2022/09/12 08:49:56;;;;;;;;;;;;;;;15.03;62.20;96081.53;10337729;28;96870;-58
2022/09/12 08:55:00;;;;;;;;;;;;;;;15.13;61.94;96082.09;10337331;28;96736;-58
2022/09/12 09:00:04;;;;;;;;;;;;;;;15.30;61.88;96079.28;10336763;28;97511;-59
2022/09/12 09:05:13;;;;;;;;;;;;;;;15.47;61.60;96083.38;10363499;28;97072;-58
2022/09/12 09:10:24;;;;;;;;;;;;;;;15.64;61.87;96072.69;10377841;28;96825;-59
2022/09/12 09:15:41;;;;;;;;;;;;;;;15.79;61.40;96068.22;10378714;28;97123;-58
2022/09/12 09:20:48;;;;;;;;;;;;;;;15.99;61.61;96076.34;10377319;28;96691;-58
2022/09/12 09:25:56;;;;;;;;;;;;;;;16.22;61.40;96076.22;10377883;28;97023;-58
2022/09/12 09:30:59;;;;;;;;;;;;;;;16.43;61.13;96071.94;10376757;28;96883;-58
2022/09/12 09:36:07;;;;;;;;;;;;;;;16.57;60.90;96068.44;10339949;28;96875;-57
2022/09/12 09:41:27;;;;;;;;;;;;;;;16.75;60.81;96070.63;10335592;28;96959;-57
2022/09/12 09:46:29;;;;;;;;;;;;;;;16.94;60.05;96069.16;10335981;28;96867;-57
2022/09/12 09:51:34;;;;;;;;;;;;;;;17.09;60.62;96057.69;10335107;28;97792;-58
2022/09/12 09:56:39;;;;;;;;;;;;;;;17.28;60.45;96050.88;10335306;28;96732;-57
2022/09/12 10:01:46;;;;;;;;;;;;;;;17.45;60.21;96048.75;10335896;28;96786;-58
2022/09/12 10:06:51;;;;;;;;;;;;;;;17.56;59.79;96050.81;10377204;28;97268;-58
2022/09/12 10:11:55;;;;;;;;;;;;;;;17.65;60.05;96054.16;10375678;28;97489;-57
2022/09/12 10:16:58;;;;;;;;;;;;;;;17.82;59.40;96054.59;10376367;28;96711;-58
2022/09/12 10:22:02;;;;;;;;;;;;;;;17.91;59.84;96049.00;10375010;28;97352;-58
2022/09/12 10:27:14;;;;;;;;;;;;;;;18.07;59.17;96031.16;10375661;28;96661;-58
2022/09/12 10:32:22;;;;;;;;;;;;;;;18.23;59.33;96020.19;10366604;28;96658;-58
2022/09/12 10:37:33;;;;;;;;;;;;;;;18.31;59.39;96022.63;10333760;28;96785;-58
2022/09/12 10:42:45;;;;;;;;;;;;;;;18.40;59.31;96014.53;10333994;28;96678;-57
2022/09/12 10:47:48;;;;;;;;;;;;;;;18.64;58.77;96011.25;10333406;28;96763;-58
2022/09/12 10:52:50;;;;;;;;;;;;;;;18.81;58.51;96006.38;10333373;28;96773;-58
2022/09/12 10:58:00;;;;;;;;;;;;;;;18.97;58.99;96007.00;10334556;28;97027;-58
2022/09/12 11:03:09;;;;;;;;;;;;;;;19.17;58.68;95999.81;10347738;28;98697;-58
2022/09/12 11:08:22;;;;;;;;;;;;;;;19.37;57.87;95997.13;10374189;28;96794;-58
2022/09/12 11:13:33;;;;;;;;;;;;;;;19.48;57.84;95993.00;10341446;28;96840;-58
2022/09/12 11:18:42;;;;;;;;;;;;;;;19.58;57.73;95985.41;10334120;28;96791;-58
2022/09/12 11:23:58;;;;;;;;;;;;;;;19.74;57.26;95989.41;10332300;28;96759;-59
2022/09/12 11:29:07;;;;;;;;;;;;;;;19.87;57.14;95977.16;10333140;28;96763;-59
2022/09/12 11:34:10;;;;;;;;;;;;;;;19.97;57.07;95978.34;10332571;28;96846;-58
2022/09/12 11:39:14;;;;;;;;;;;;;;;20.13;57.18;95976.19;10332325;28;97406;-58
2022/09/12 11:44:21;;;;;;;;;;;;;;;20.31;56.58;95978.91;10332139;28;96663;-58
2022/09/12 11:49:27;;;;;;;;;;;;;;;20.54;56.31;95966.91;10341074;28;97393;-58
2022/09/12 11:54:36;;;;;;;;;;;;;;;20.74;56.07;95967.56;10373302;28;96745;-58
2022/09/12 11:59:44;;;;;;;;;;;;;;;20.81;56.00;95966.69;10379642;28;96658;-58
2022/09/12 12:04:55;;;;;;;;;;;;;;;20.89;55.99;95958.44;10379084;28;96842;-58
2022/09/12 12:09:58;;;;;;;;;;;;;;;20.98;56.00;95958.97;10375637;28;96774;-58
2022/09/12 12:15:02;;;;;;;;;;;;;;;21.20;55.53;95959.34;10338768;28;97017;-58
2022/09/12 12:20:05;;;;;;;;;;;;;;;21.40;55.16;95957.28;10338214;28;96818;-58
2022/09/12 12:25:24;;;;;;;;;;;;;;;21.46;55.11;95953.72;10338329;28;96850;-58
2022/09/12 12:30:59;;;;;;;;;;;;;;;21.63;55.11;95947.84;10338177;28;97639;-58
2022/09/12 12:36:04;;;;;;;;;;;;;;;21.76;54.78;95941.53;10337684;28;96854;-58
2022/09/12 12:41:25;;;;;;;;;;;;;;;22.00;54.43;95937.09;10338557;28;96803;-59
2022/09/12 12:46:29;;;;;;;;;;;;;;;22.10;53.99;95926.72;10337549;28;97001;-58
2022/09/12 12:51:35;;;;;;;;;;;;;;;22.40;53.66;95920.50;10336877;28;96739;-57
2022/09/12 12:56:39;;;;;;;;;;;;;;;22.58;53.47;95915.13;10336299;28;96717;-58
2022/09/12 13:01:44;;;;;;;;;;;;;;;22.67;53.39;95912.13;10337220;28;96844;-58
2022/09/12 13:06:56;;;;;;;;;;;;;;;22.77;53.50;95902.50;10336326;28;98194;-58
2022/09/12 13:12:01;;;;;;;;;;;;;;;22.85;53.10;95905.84;10348457;28;96825;-58
2022/09/12 13:17:05;;;;;;;;;;;;;;;22.93;53.10;95892.97;10336491;28;96864;-59
2022/09/12 13:22:10;;;;;;;;;;;;;;;22.78;53.21;95887.31;10336445;28;97588;-58
2022/09/12 13:27:18;;;;;;;;;;;;;;;22.97;53.06;95883.47;10336719;28;96789;-58
2022/09/12 13:32:20;;;;;;;;;;;;;;;23.31;52.18;95878.31;10337026;28;96722;-59
2022/09/12 13:37:31;;;;;;;;;;;;;;;23.55;51.73;95878.22;10336046;28;96845;-58
2022/09/12 13:42:41;;;;;;;;;;;;;;;23.64;51.54;95871.47;10360280;28;97056;-59
2022/09/12 13:47:44;;;;;;;;;;;;;;;23.75;51.42;95859.91;10376011;28;96861;-58
2022/09/12 13:52:50;;;;;;;;;;;;;;;23.87;51.26;95853.72;10337099;28;96817;-59
2022/09/12 13:57:56;;;;;;;;;;;;;;;24.29;50.52;95840.78;10335394;28;96852;-58
2022/09/12 14:08:22;;;;;;;;;;;;;;;25.38;48.80;95840.34;10337494;28;96804;-59
2022/09/12 14:13:27;;;;;;;;;;;;;;;25.30;49.29;95838.91;10343679;28;96860;-59
2022/09/12 14:18:35;;;;;;;;;;;;;;;25.62;48.51;95836.34;10333901;28;97050;-58
2022/09/12 14:23:40;;;;;;;;;;;;;;;25.89;47.71;95818.63;10335329;28;96681;-58
2022/09/12 14:28:46;;;;;;;;;;;;;;;26.18;47.06;95816.47;10334681;28;96908;-58
2022/09/12 14:33:49;;;;;;;;;;;;;;;26.22;46.94;95817.53;10333870;28;97932;-58
2022/09/12 14:38:55;;;;;;;;;;;;;;;26.59;46.39;95811.41;10333457;28;96762;-60
2022/09/12 14:44:00;;;;;;;;;;;;;;;26.90;46.31;95806.16;10371522;28;97515;-58
2022/09/12 14:49:07;;;;;;;;;;;;;;;26.90;46.25;95808.84;10374954;28;97643;-59
2022/09/12 14:54:25;;;;;;;;;;;;;;;26.64;46.67;95808.75;10374908;28;97044;-58
2022/09/12 14:59:31;;;;;;;;;;;;;;;26.80;46.28;95811.50;10374036;28;96885;-58
2022/09/12 15:04:40;;;;;;;;;;;;;;;26.90;46.07;95806.97;10374898;28;96736;-58
2022/09/12 15:09:43;;;;;;;;;;;;;;;27.14;45.85;95795.81;10371340;28;96786;-58
2022/09/12 15:14:50;;;;;;;;;;;;;;;27.45;45.18;95788.66;10334418;28;98608;-59
2022/09/12 15:19:52;;;;;;;;;;;;;;;27.70;44.77;95787.13;10333112;28;96774;-58
2022/09/12 15:24:56;;;;;;;;;;;;;;;28.09;44.44;95783.06;10333199;28;96718;-59
2022/09/12 15:30:00;;;;;;;;;;;;;;;28.08;44.40;95787.63;10332459;28;96855;-58
2022/09/12 15:35:03;;;;;;;;;;;;;;;28.19;44.25;95788.44;10340407;28;96768;-58
2022/09/12 15:40:06;;;;;;;;;;;;;;;28.64;43.73;95793.97;10344636;28;96978;-59
2022/09/12 15:45:16;;;;;;;;;;;;;;;29.21;42.89;95789.22;10379956;28;98029;-59
2022/09/12 15:50:19;;;;;;;;;;;;;;;29.43;42.85;95783.44;10380823;28;96938;-58
2022/09/12 15:55:22;;;;;;;;;;;;;;;29.59;42.13;95784.16;10380916;28;96834;-59
2022/09/12 16:00:26;;;;;;;;;;;;;;;29.52;42.01;95782.56;10380607;28;97154;-59
2022/09/12 16:05:28;;;;;;;;;;;;;;;29.66;41.70;95782.78;10352273;28;97058;-59
2022/09/12 16:10:31;;;;;;;;;;;;;;;29.98;41.04;95765.28;10359273;28;96811;-59
2022/09/12 16:15:36;;;;;;;;;;;;;;;30.11;40.94;95764.63;10379641;28;96829;-58
2022/09/12 16:20:39;;;;;;;;;;;;;;;30.68;40.18;95758.66;10379331;28;96664;-59
2022/09/12 16:25:41;;;;;;;;;;;;;;;30.80;40.02;95752.88;10379705;28;97482;-59
2022/09/12 16:30:54;;;;;;;;;;;;;;;30.84;40.42;95754.72;10374471;28;96945;-59
2022/09/12 16:36:01;;;;;;;;;;;;;;;31.15;39.90;95746.19;10369289;28;96647;-59
2022/09/12 16:41:04;;;;;;;;;;;;;;;31.52;39.34;95747.34;10416381;27;97081;-59
2022/09/12 16:46:09;;;;;;;;;;;;;;;31.46;39.66;95740.41;10395391;28;96856;-59
2022/09/12 16:51:12;;;;;;;;;;;;;;;31.32;39.95;95728.72;10378904;28;96833;-59
2022/09/12 16:56:15;;;;;;;;;;;;;;;30.60;40.99;95729.63;10395152;28;96961;-60
2022/09/12 17:01:20;;;;;;;;;;;;;;;29.41;42.76;95731.78;10373079;28;96850;-59
2022/09/12 17:06:23;;;;;;;;;;;;;;;28.10;44.22;95736.34;10401571;28;96759;-58
2022/09/12 17:11:29;;;;;;;;;;;;;;;26.78;46.37;95738.59;10389804;27;96897;-58
2022/09/12 17:16:33;;;;;;;;;;;;;;;25.88;46.65;95742.91;10376319;28;96985;-58
2022/09/12 17:21:36;;;;;;;;;;;;;;;25.32;46.92;95742.41;10375475;28;96986;-59
2022/09/12 17:26:38;;;;;;;;;;;;;;;24.90;47.14;95746.53;10353852;28;98608;-58
2022/09/12 17:31:43;;;;;;;;;;;;;;;24.40;47.52;95745.66;10359066;28;98341;-58
2022/09/12 17:36:47;;;;;;;;;;;;;;;24.19;47.32;95749.09;10378663;28;96955;-59
2022/09/12 17:41:50;;;;;;;;;;;;;;;23.94;47.67;95737.00;10371819;28;97355;-58
2022/09/12 17:46:54;;;;;;;;;;;;;;;23.60;47.92;95745.00;10362623;28;96927;-58
2022/09/12 17:51:57;;;;;;;;;;;;;;;23.32;47.92;95757.31;10348861;28;96967;-58
2022/09/12 17:56:59;;;;;;;;;;;;;;;23.06;48.07;95757.88;10356382;28;99223;-60
2022/09/12 18:02:12;;;;;;;;;;;;;;;22.69;48.44;95747.63;10379347;28;97183;-58
2022/09/12 18:07:17;;;;;;;;;;;;;;;22.30;49.23;95745.47;10358904;28;96824;-60
2022/09/12 18:12:19;;;;;;;;;;;;;;;22.00;49.59;95750.91;10352491;28;96752;-59
2022/09/12 18:17:23;;;;;;;;;;;;;;;21.69;49.88;95769.63;10369686;28;98146;-59
2022/09/12 18:22:26;;;;;;;;;;;;;;;21.38;50.65;95770.72;10374782;28;96838;-59
2022/09/12 18:27:28;;;;;;;;;;;;;;;21.09;50.72;95775.81;10379906;28;97883;-58
2022/09/12 18:32:33;;;;;;;;;;;;;;;20.86;51.23;95786.31;10377339;28;96947;-58
2022/09/12 18:37:35;;;;;;;;;;;;;;;20.74;51.51;95787.06;10374490;28;96895;-57
2022/09/12 18:42:38;;;;;;;;;;;;;;;20.70;51.52;95793.00;10388829;28;96743;-58
2022/09/12 18:47:42;;;;;;;;;;;;;;;20.59;51.77;95799.88;10379153;28;96966;-58
2022/09/12 18:52:44;;;;;;;;;;;;;;;20.50;51.59;95799.34;10336207;27;96845;-59
2022/09/12 18:57:47;;;;;;;;;;;;;;;20.33;52.10;95796.47;10386727;28;98111;-58
2022/09/12 19:02:51;;;;;;;;;;;;;;;19.99;52.47;95805.75;10390170;28;97503;-58
2022/09/12 19:07:53;;;;;;;;;;;;;;;19.59;53.21;95812.19;10370776;28;96855;-58
2022/09/12 19:12:56;;;;;;;;;;;;;;;19.32;53.94;95821.34;10384073;28;96924;-58
2022/09/12 19:18:00;;;;;;;;;;;;;;;19.17;53.70;95825.06;10415010;28;96746;-59
2022/09/12 19:23:02;;;;;;;;;;;;;;;19.15;53.55;95811.22;10415531;27;96625;-58
2022/09/12 19:28:05;;;;;;;;;;;;;;;18.96;53.84;95823.53;10355646;28;96883;-58
2022/09/12 19:33:09;;;;;;;;;;;;;;;18.57;54.71;95813.88;10332102;28;98038;-58
2022/09/12 19:38:12;;;;;;;;;;;;;;;18.35;55.34;95814.13;10331842;28;97134;-58
2022/09/12 19:43:14;;;;;;;;;;;;;;;18.30;55.11;95819.22;10331835;28;96750;-58
2022/09/12 19:48:19;;;;;;;;;;;;;;;18.27;54.82;95815.19;10341165;28;96752;-58
2022/09/12 19:53:21;;;;;;;;;;;;;;;18.22;54.46;95819.44;10373245;28;96765;-58
2022/09/12 19:58:24;;;;;;;;;;;;;;;18.04;54.74;95820.88;10372677;28;96818;-58
2022/09/12 20:03:28;;;;;;;;;;;;;;;17.75;56.19;95833.47;10371857;28;96916;-59
2022/09/12 20:08:30;;;;;;;;;;;;;;;17.58;56.26;95826.97;10377657;28;96810;-57
2022/09/12 20:13:33;;;;;;;;;;;;;;;17.52;55.58;95830.41;10372495;28;96694;-58
2022/09/12 20:18:37;;;;;;;;;;;;;;;17.41;56.27;95820.44;10380831;28;96909;-58
2022/09/12 20:23:40;;;;;;;;;;;;;;;17.25;57.00;95830.38;10337143;28;96957;-58
2022/09/12 20:28:43;;;;;;;;;;;;;;;17.17;56.40;95835.81;10335335;28;97464;-58
2022/09/12 20:33:47;;;;;;;;;;;;;;;17.15;56.76;95832.56;10334858;28;96860;-58
2022/09/12 20:38:55;;;;;;;;;;;;;;;17.18;56.50;95827.69;10336404;28;96709;-58
2022/09/12 20:43:58;;;;;;;;;;;;;;;17.10;56.45;95825.22;10336967;28;97352;-58
2022/09/12 20:49:02;;;;;;;;;;;;;;;16.85;57.27;95822.31;10372254;28;96935;-58
2022/09/12 20:54:06;;;;;;;;;;;;;;;16.76;56.90;95834.88;10342556;28;97191;-58
2022/09/12 20:59:11;;;;;;;;;;;;;;;16.69;57.65;95827.88;10336403;28;97185;-58
2022/09/12 21:04:15;;;;;;;;;;;;;;;16.55;57.39;95827.81;10336668;28;96798;-58
2022/09/12 21:09:18;;;;;;;;;;;;;;;16.39;57.83;95828.16;10347699;28;97128;-58
2022/09/12 21:14:20;;;;;;;;;;;;;;;16.42;57.75;95822.50;10377566;28;97882;-58
2022/09/12 21:19:24;;;;;;;;;;;;;;;16.40;58.05;95824.50;10377895;28;96794;-58
2022/09/12 21:24:27;;;;;;;;;;;;;;;16.41;57.73;95820.84;10368109;28;97120;-60
2022/09/12 21:29:29;;;;;;;;;;;;;;;16.18;58.07;95821.94;10378547;28;96872;-58
2022/09/12 21:34:33;;;;;;;;;;;;;;;16.03;58.47;95823.84;10418704;28;96884;-58
2022/09/12 21:39:36;;;;;;;;;;;;;;;15.98;58.69;95831.50;10418906;27;96994;-58
2022/09/12 21:44:38;;;;;;;;;;;;;;;15.93;58.71;95828.63;10379946;28;96715;-59
2022/09/12 21:49:42;;;;;;;;;;;;;;;15.90;58.31;95821.94;10375112;28;96785;-58
2022/09/12 21:54:45;;;;;;;;;;;;;;;15.71;59.13;95831.31;10365040;28;96984;-58
2022/09/12 21:59:47;;;;;;;;;;;;;;;15.68;58.91;95823.78;10368868;28;97126;-59
2022/09/12 22:04:51;;;;;;;;;;;;;;;15.49;59.15;95831.31;10376894;28;96838;-58
2022/09/12 22:09:54;;;;;;;;;;;;;;;15.27;59.39;95824.41;10351421;28;96904;-58
2022/09/12 22:14:56;;;;;;;;;;;;;;;15.19;60.14;95829.78;10374102;28;96882;-59
2022/09/12 22:20:00;;;;;;;;;;;;;;;15.18;60.01;95807.91;10375841;28;96776;-58
2022/09/12 22:25:03;;;;;;;;;;;;;;;15.20;59.55;95812.97;10372963;28;98067;-59
2022/09/12 22:30:06;;;;;;;;;;;;;;;15.16;60.25;95811.72;10373175;28;96937;-59
2022/09/12 22:35:10;;;;;;;;;;;;;;;14.91;61.07;95819.97;10378265;28;97508;-57
2022/09/12 22:40:12;;;;;;;;;;;;;;;14.89;60.98;95819.34;10416787;28;96862;-58
2022/09/12 22:45:15;;;;;;;;;;;;;;;14.91;60.84;95828.66;10397601;28;96750;-58
2022/09/12 22:50:19;;;;;;;;;;;;;;;14.95;60.89;95823.84;10417678;28;96926;-58
2022/09/12 22:55:21;;;;;;;;;;;;;;;14.86;60.42;95822.34;10393646;28;96751;-58
2022/09/12 23:00:26;;;;;;;;;;;;;;;14.67;61.30;95823.72;10333255;28;97371;-58
2022/09/12 23:05:30;;;;;;;;;;;;;;;14.58;61.87;95825.66;10333405;28;96805;-58
2022/09/12 23:10:34;;;;;;;;;;;;;;;14.58;61.39;95820.38;10360387;28;96878;-58
2022/09/12 23:15:37;;;;;;;;;;;;;;;14.48;61.77;95825.09;10375588;28;96912;-58
2022/09/12 23:20:41;;;;;;;;;;;;;;;14.48;61.73;95825.09;10374505;28;96671;-58
2022/09/12 23:25:44;;;;;;;;;;;;;;;14.55;62.07;95828.63;10373271;28;97312;-58
2022/09/12 23:30:46;;;;;;;;;;;;;;;14.58;62.00;95836.16;10374487;28;96813;-57
2022/09/12 23:35:50;;;;;;;;;;;;;;;14.50;61.60;95839.69;10371644;28;97966;-59
2022/09/12 23:40:53;;;;;;;;;;;;;;;14.32;62.05;95840.06;10363736;28;97259;-58
2022/09/12 23:45:55;;;;;;;;;;;;;;;14.30;61.98;95849.91;10374051;28;96762;-58
2022/09/12 23:51:00;;;;;;;;;;;;;;;14.17;62.60;95865.47;10374278;28;96754;-58
2022/09/12 23:56:02;;;;;;;;;;;;;;;14.18;62.39;95867.09;10378606;28;96963;-58
